sensor_id;sensor_type;location;lat;lon;timestamp;temperature;humidity
19252;DHT22;9760;50.944;5.304;2023-08-08T00:01:06;13.70;99.90
19252;DHT22;9760;50.944;5.304;2023-08-08T00:03:32;13.70;99.90
19252;DHT22;9760;50.944;5.304;2023-08-08T00:05:58;13.70;99.90
19252;DHT22;9760;50.944;5.304;2023-08-08T00:08:23;13.60;99.90
19252;DHT22;9760;50.944;5.304;2023-08-08T00:10:49;13.60;99.90
19252;DHT22;9760;50.944;5.304;2023-08-08T00:13:15;13.60;99.90
19252;DHT22;9760;50.944;5.304;2023-08-08T00:15:40;13.60;99.90
19252;DHT22;9760;50.944;5.304;2023-08-08T00:18:06;13.60;99.90
19252;DHT22;9760;50.944;5.304;2023-08-08T00:20:32;13.60;99.90
19252;DHT22;9760;50.944;5.304;2023-08-08T00:22:58;13.60;99.90
19252;DHT22;9760;50.944;5.304;2023-08-08T00:25:23;13.60;99.90
19252;DHT22;9760;50.944;5.304;2023-08-08T00:27:50;13.60;99.90
19252;DHT22;9760;50.944;5.304;2023-08-08T00:30:16;13.60;99.90
19252;DHT22;9760;50.944;5.304;2023-08-08T00:32:42;13.60;99.90
19252;DHT22;9760;50.944;5.304;2023-08-08T00:35:08;13.60;99.90
19252;DHT22;9760;50.944;5.304;2023-08-08T00:37:33;13.60;99.90
19252;DHT22;9760;50.944;5.304;2023-08-08T00:39:59;13.60;99.90
19252;DHT22;9760;50.944;5.304;2023-08-08T00:42:25;13.60;99.90
19252;DHT22;9760;50.944;5.304;2023-08-08T00:44:51;13.60;99.90
19252;DHT22;9760;50.944;5.304;2023-08-08T00:47:16;13.60;99.90
19252;DHT22;9760;50.944;5.304;2023-08-08T00:49:42;13.50;99.90
19252;DHT22;9760;50.944;5.304;2023-08-08T00:52:09;13.50;99.90
19252;DHT22;9760;50.944;5.304;2023-08-08T00:54:35;13.50;99.90
19252;DHT22;9760;50.944;5.304;2023-08-08T00:57:01;13.50;99.90
19252;DHT22;9760;50.944;5.304;2023-08-08T00:59:27;13.50;99.90
19252;DHT22;9760;50.944;5.304;2023-08-08T01:01:53;13.50;99.90
19252;DHT22;9760;50.944;5.304;2023-08-08T01:04:19;13.50;99.90
19252;DHT22;9760;50.944;5.304;2023-08-08T01:07:15;13.40;99.90
19252;DHT22;9760;50.944;5.304;2023-08-08T01:09:51;13.40;99.90
19252;DHT22;9760;50.944;5.304;2023-08-08T01:12:18;13.30;99.90
19252;DHT22;9760;50.944;5.304;2023-08-08T01:14:45;13.30;99.90
19252;DHT22;9760;50.944;5.304;2023-08-08T01:17:12;13.30;99.90
19252;DHT22;9760;50.944;5.304;2023-08-08T01:19:38;13.30;99.90
19252;DHT22;9760;50.944;5.304;2023-08-08T01:22:11;13.30;99.90
19252;DHT22;9760;50.944;5.304;2023-08-08T01:24:40;13.30;99.90
19252;DHT22;9760;50.944;5.304;2023-08-08T01:27:06;13.30;99.90
19252;DHT22;9760;50.944;5.304;2023-08-08T01:29:32;13.30;99.90
19252;DHT22;9760;50.944;5.304;2023-08-08T01:31:58;13.30;99.90
19252;DHT22;9760;50.944;5.304;2023-08-08T01:34:24;13.20;99.90
19252;DHT22;9760;50.944;5.304;2023-08-08T01:36:57;13.20;99.90
19252;DHT22;9760;50.944;5.304;2023-08-08T01:39:27;13.20;99.90
19252;DHT22;9760;50.944;5.304;2023-08-08T01:41:54;13.20;99.90
19252;DHT22;9760;50.944;5.304;2023-08-08T01:44:21;13.10;99.90
19252;DHT22;9760;50.944;5.304;2023-08-08T01:46:49;13.10;99.90
19252;DHT22;9760;50.944;5.304;2023-08-08T01:49:14;13.10;99.90
19252;DHT22;9760;50.944;5.304;2023-08-08T01:51:40;13.10;99.90
19252;DHT22;9760;50.944;5.304;2023-08-08T01:54:06;13.10;99.90
19252;DHT22;9760;50.944;5.304;2023-08-08T01:56:32;12.90;99.90
19252;DHT22;9760;50.944;5.304;2023-08-08T01:58:57;13.00;99.90
19252;DHT22;9760;50.944;5.304;2023-08-08T02:01:23;13.00;99.90
19252;DHT22;9760;50.944;5.304;2023-08-08T02:03:48;12.90;99.90
19252;DHT22;9760;50.944;5.304;2023-08-08T02:06:14;12.90;99.90
19252;DHT22;9760;50.944;5.304;2023-08-08T02:08:40;12.90;99.90
19252;DHT22;9760;50.944;5.304;2023-08-08T02:11:06;12.90;99.90
19252;DHT22;9760;50.944;5.304;2023-08-08T02:13:32;12.90;99.90
19252;DHT22;9760;50.944;5.304;2023-08-08T02:15:57;12.90;99.90
19252;DHT22;9760;50.944;5.304;2023-08-08T02:18:23;12.90;99.90
19252;DHT22;9760;50.944;5.304;2023-08-08T02:20:49;12.90;99.90
19252;DHT22;9760;50.944;5.304;2023-08-08T02:23:14;12.80;99.90
19252;DHT22;9760;50.944;5.304;2023-08-08T02:25:40;12.80;99.90
19252;DHT22;9760;50.944;5.304;2023-08-08T02:28:06;12.80;99.90
19252;DHT22;9760;50.944;5.304;2023-08-08T02:30:32;12.80;99.90
19252;DHT22;9760;50.944;5.304;2023-08-08T02:32:57;12.80;99.90
19252;DHT22;9760;50.944;5.304;2023-08-08T02:35:23;12.70;99.90
19252;DHT22;9760;50.944;5.304;2023-08-08T02:37:49;12.80;99.90
19252;DHT22;9760;50.944;5.304;2023-08-08T02:40:14;12.70;99.90
19252;DHT22;9760;50.944;5.304;2023-08-08T02:42:40;12.70;99.90
19252;DHT22;9760;50.944;5.304;2023-08-08T02:45:06;12.70;99.90
19252;DHT22;9760;50.944;5.304;2023-08-08T02:47:32;12.70;99.90
19252;DHT22;9760;50.944;5.304;2023-08-08T02:49:57;12.70;99.90
19252;DHT22;9760;50.944;5.304;2023-08-08T02:52:23;12.80;99.90
19252;DHT22;9760;50.944;5.304;2023-08-08T02:54:49;12.80;99.90
19252;DHT22;9760;50.944;5.304;2023-08-08T02:57:15;12.70;99.90
19252;DHT22;9760;50.944;5.304;2023-08-08T02:59:41;12.70;99.90
19252;DHT22;9760;50.944;5.304;2023-08-08T03:02:06;12.70;99.90
19252;DHT22;9760;50.944;5.304;2023-08-08T03:04:32;12.70;99.90
19252;DHT22;9760;50.944;5.304;2023-08-08T03:06:58;12.70;99.90
19252;DHT22;9760;50.944;5.304;2023-08-08T03:09:25;12.70;99.90
19252;DHT22;9760;50.944;5.304;2023-08-08T03:11:50;12.70;99.90
19252;DHT22;9760;50.944;5.304;2023-08-08T03:14:16;12.60;99.90
19252;DHT22;9760;50.944;5.304;2023-08-08T03:16:41;12.60;99.90
19252;DHT22;9760;50.944;5.304;2023-08-08T03:19:08;12.60;99.90
19252;DHT22;9760;50.944;5.304;2023-08-08T03:21:33;12.60;99.90
19252;DHT22;9760;50.944;5.304;2023-08-08T03:23:59;12.60;99.90
19252;DHT22;9760;50.944;5.304;2023-08-08T03:26:25;12.60;99.90
19252;DHT22;9760;50.944;5.304;2023-08-08T03:28:50;12.60;99.90
19252;DHT22;9760;50.944;5.304;2023-08-08T03:31:19;12.50;99.90
19252;DHT22;9760;50.944;5.304;2023-08-08T03:33:45;12.50;99.90
19252;DHT22;9760;50.944;5.304;2023-08-08T03:36:10;12.50;99.90
19252;DHT22;9760;50.944;5.304;2023-08-08T03:38:36;12.60;99.90
19252;DHT22;9760;50.944;5.304;2023-08-08T03:41:03;12.60;99.90
19252;DHT22;9760;50.944;5.304;2023-08-08T03:43:29;12.50;99.90
19252;DHT22;9760;50.944;5.304;2023-08-08T03:45:55;12.60;99.90
19252;DHT22;9760;50.944;5.304;2023-08-08T03:48:20;12.50;99.90
19252;DHT22;9760;50.944;5.304;2023-08-08T03:50:46;12.50;99.90
19252;DHT22;9760;50.944;5.304;2023-08-08T03:53:12;12.50;99.90
19252;DHT22;9760;50.944;5.304;2023-08-08T03:55:38;12.50;99.90
19252;DHT22;9760;50.944;5.304;2023-08-08T03:58:04;12.50;99.90
19252;DHT22;9760;50.944;5.304;2023-08-08T04:00:31;12.50;99.90
19252;DHT22;9760;50.944;5.304;2023-08-08T04:02:57;12.50;99.90
19252;DHT22;9760;50.944;5.304;2023-08-08T04:05:23;12.50;99.90
19252;DHT22;9760;50.944;5.304;2023-08-08T04:07:49;12.50;99.90
19252;DHT22;9760;50.944;5.304;2023-08-08T04:10:15;12.50;99.90
19252;DHT22;9760;50.944;5.304;2023-08-08T04:12:41;12.50;99.90
19252;DHT22;9760;50.944;5.304;2023-08-08T04:15:06;12.50;99.90
19252;DHT22;9760;50.944;5.304;2023-08-08T04:17:32;12.50;99.90
19252;DHT22;9760;50.944;5.304;2023-08-08T04:19:58;12.50;99.90
19252;DHT22;9760;50.944;5.304;2023-08-08T04:22:24;12.50;99.90
19252;DHT22;9760;50.944;5.304;2023-08-08T04:24:50;12.60;99.90
19252;DHT22;9760;50.944;5.304;2023-08-08T04:27:15;12.50;99.90
19252;DHT22;9760;50.944;5.304;2023-08-08T04:29:41;12.50;99.90
19252;DHT22;9760;50.944;5.304;2023-08-08T04:32:07;12.50;99.90
19252;DHT22;9760;50.944;5.304;2023-08-08T04:34:33;12.50;99.90
19252;DHT22;9760;50.944;5.304;2023-08-08T04:36:58;12.60;99.90
19252;DHT22;9760;50.944;5.304;2023-08-08T04:39:24;12.50;99.90
19252;DHT22;9760;50.944;5.304;2023-08-08T04:41:50;12.50;99.90
19252;DHT22;9760;50.944;5.304;2023-08-08T04:44:15;12.60;99.90
19252;DHT22;9760;50.944;5.304;2023-08-08T04:46:41;12.60;99.90
19252;DHT22;9760;50.944;5.304;2023-08-08T04:49:07;12.60;99.90
19252;DHT22;9760;50.944;5.304;2023-08-08T04:51:32;12.60;99.90
19252;DHT22;9760;50.944;5.304;2023-08-08T04:53:58;12.60;99.90
19252;DHT22;9760;50.944;5.304;2023-08-08T04:56:23;12.60;99.90
19252;DHT22;9760;50.944;5.304;2023-08-08T04:58:49;12.70;99.90
19252;DHT22;9760;50.944;5.304;2023-08-08T05:01:15;12.70;99.90
19252;DHT22;9760;50.944;5.304;2023-08-08T05:03:43;12.70;99.90
19252;DHT22;9760;50.944;5.304;2023-08-08T05:06:08;12.70;99.90
19252;DHT22;9760;50.944;5.304;2023-08-08T05:08:34;12.70;99.90
19252;DHT22;9760;50.944;5.304;2023-08-08T05:11:00;12.80;99.90
19252;DHT22;9760;50.944;5.304;2023-08-08T05:13:26;12.80;99.90
19252;DHT22;9760;50.944;5.304;2023-08-08T05:15:52;12.90;99.90
19252;DHT22;9760;50.944;5.304;2023-08-08T05:18:17;12.90;99.90
19252;DHT22;9760;50.944;5.304;2023-08-08T05:20:43;12.90;99.90
19252;DHT22;9760;50.944;5.304;2023-08-08T05:23:09;13.00;99.90
19252;DHT22;9760;50.944;5.304;2023-08-08T05:25:34;13.00;99.90
19252;DHT22;9760;50.944;5.304;2023-08-08T05:28:00;13.00;99.90
19252;DHT22;9760;50.944;5.304;2023-08-08T05:30:26;13.10;99.90
19252;DHT22;9760;50.944;5.304;2023-08-08T05:32:51;13.10;99.90
19252;DHT22;9760;50.944;5.304;2023-08-08T05:35:17;13.10;99.90
19252;DHT22;9760;50.944;5.304;2023-08-08T05:37:43;13.30;99.90
19252;DHT22;9760;50.944;5.304;2023-08-08T05:40:09;13.30;99.90
19252;DHT22;9760;50.944;5.304;2023-08-08T05:42:37;13.30;99.90
19252;DHT22;9760;50.944;5.304;2023-08-08T05:45:03;13.40;99.90
19252;DHT22;9760;50.944;5.304;2023-08-08T05:47:28;13.40;99.90
19252;DHT22;9760;50.944;5.304;2023-08-08T05:49:54;13.50;99.90
19252;DHT22;9760;50.944;5.304;2023-08-08T05:52:20;13.50;99.90
19252;DHT22;9760;50.944;5.304;2023-08-08T05:54:47;13.50;99.90
19252;DHT22;9760;50.944;5.304;2023-08-08T05:57:13;13.60;99.90
19252;DHT22;9760;50.944;5.304;2023-08-08T05:59:38;13.70;99.90
19252;DHT22;9760;50.944;5.304;2023-08-08T06:02:04;13.80;99.90
19252;DHT22;9760;50.944;5.304;2023-08-08T06:04:30;13.80;99.90
19252;DHT22;9760;50.944;5.304;2023-08-08T06:06:56;13.90;99.90
19252;DHT22;9760;50.944;5.304;2023-08-08T06:09:21;14.00;99.90
19252;DHT22;9760;50.944;5.304;2023-08-08T06:11:48;14.00;99.90
19252;DHT22;9760;50.944;5.304;2023-08-08T06:14:13;14.00;99.90
19252;DHT22;9760;50.944;5.304;2023-08-08T06:16:39;14.00;99.90
19252;DHT22;9760;50.944;5.304;2023-08-08T06:19:05;14.10;99.90
19252;DHT22;9760;50.944;5.304;2023-08-08T06:21:31;14.10;99.90
19252;DHT22;9760;50.944;5.304;2023-08-08T06:23:57;14.20;99.90
19252;DHT22;9760;50.944;5.304;2023-08-08T06:26:23;14.40;99.90
19252;DHT22;9760;50.944;5.304;2023-08-08T06:28:49;14.40;99.90
19252;DHT22;9760;50.944;5.304;2023-08-08T06:31:17;14.50;99.90
19252;DHT22;9760;50.944;5.304;2023-08-08T06:33:43;14.40;99.90
19252;DHT22;9760;50.944;5.304;2023-08-08T06:36:09;14.50;99.90
19252;DHT22;9760;50.944;5.304;2023-08-08T06:38:35;14.70;99.90
19252;DHT22;9760;50.944;5.304;2023-08-08T06:41:03;14.70;99.90
19252;DHT22;9760;50.944;5.304;2023-08-08T06:43:30;14.90;99.90
19252;DHT22;9760;50.944;5.304;2023-08-08T06:45:56;15.00;99.90
19252;DHT22;9760;50.944;5.304;2023-08-08T06:48:22;15.10;99.90
19252;DHT22;9760;50.944;5.304;2023-08-08T06:50:49;15.20;99.90
19252;DHT22;9760;50.944;5.304;2023-08-08T06:53:14;15.30;99.90
19252;DHT22;9760;50.944;5.304;2023-08-08T06:55:41;15.40;99.90
19252;DHT22;9760;50.944;5.304;2023-08-08T06:58:06;15.50;99.90
19252;DHT22;9760;50.944;5.304;2023-08-08T07:00:32;15.50;99.90
19252;DHT22;9760;50.944;5.304;2023-08-08T07:02:58;15.60;99.90
19252;DHT22;9760;50.944;5.304;2023-08-08T07:05:23;15.70;99.90
19252;DHT22;9760;50.944;5.304;2023-08-08T07:07:52;15.70;99.90
19252;DHT22;9760;50.944;5.304;2023-08-08T07:10:19;15.70;99.90
19252;DHT22;9760;50.944;5.304;2023-08-08T07:12:45;15.60;99.90
19252;DHT22;9760;50.944;5.304;2023-08-08T07:15:11;15.60;99.90
19252;DHT22;9760;50.944;5.304;2023-08-08T07:17:37;15.60;99.90
19252;DHT22;9760;50.944;5.304;2023-08-08T07:20:03;15.70;99.90
19252;DHT22;9760;50.944;5.304;2023-08-08T07:22:31;15.70;99.90
19252;DHT22;9760;50.944;5.304;2023-08-08T07:24:58;15.80;99.90
19252;DHT22;9760;50.944;5.304;2023-08-08T07:27:23;15.90;99.90
19252;DHT22;9760;50.944;5.304;2023-08-08T07:29:49;15.90;99.90
19252;DHT22;9760;50.944;5.304;2023-08-08T07:32:15;16.00;99.90
19252;DHT22;9760;50.944;5.304;2023-08-08T07:34:40;16.00;99.90
19252;DHT22;9760;50.944;5.304;2023-08-08T07:37:06;16.10;99.90
19252;DHT22;9760;50.944;5.304;2023-08-08T07:39:32;16.20;99.90
19252;DHT22;9760;50.944;5.304;2023-08-08T07:41:57;16.10;99.90
19252;DHT22;9760;50.944;5.304;2023-08-08T07:44:23;16.10;99.90
19252;DHT22;9760;50.944;5.304;2023-08-08T07:46:49;16.10;99.90
19252;DHT22;9760;50.944;5.304;2023-08-08T07:49:15;16.10;99.90
19252;DHT22;9760;50.944;5.304;2023-08-08T07:51:40;16.20;99.90
19252;DHT22;9760;50.944;5.304;2023-08-08T07:54:07;16.40;99.90
19252;DHT22;9760;50.944;5.304;2023-08-08T07:56:35;16.40;99.90
19252;DHT22;9760;50.944;5.304;2023-08-08T07:59:01;16.60;99.90
19252;DHT22;9760;50.944;5.304;2023-08-08T08:01:27;16.80;99.90
19252;DHT22;9760;50.944;5.304;2023-08-08T08:03:53;17.00;99.90
19252;DHT22;9760;50.944;5.304;2023-08-08T08:06:19;17.20;99.90
19252;DHT22;9760;50.944;5.304;2023-08-08T08:08:44;17.10;99.90
19252;DHT22;9760;50.944;5.304;2023-08-08T08:11:10;17.10;99.90
19252;DHT22;9760;50.944;5.304;2023-08-08T08:13:37;17.20;99.90
19252;DHT22;9760;50.944;5.304;2023-08-08T08:16:03;17.10;99.90
19252;DHT22;9760;50.944;5.304;2023-08-08T08:18:29;17.00;99.90
19252;DHT22;9760;50.944;5.304;2023-08-08T08:20:55;17.10;99.90
19252;DHT22;9760;50.944;5.304;2023-08-08T08:23:21;16.90;99.90
19252;DHT22;9760;50.944;5.304;2023-08-08T08:25:47;17.00;99.90
19252;DHT22;9760;50.944;5.304;2023-08-08T08:28:14;17.10;99.90
19252;DHT22;9760;50.944;5.304;2023-08-08T08:30:40;17.10;99.90
19252;DHT22;9760;50.944;5.304;2023-08-08T08:33:07;17.20;99.90
19252;DHT22;9760;50.944;5.304;2023-08-08T08:35:36;17.30;99.90
19252;DHT22;9760;50.944;5.304;2023-08-08T08:38:03;17.40;99.90
19252;DHT22;9760;50.944;5.304;2023-08-08T08:40:31;17.40;99.90
19252;DHT22;9760;50.944;5.304;2023-08-08T08:42:57;17.40;99.90
19252;DHT22;9760;50.944;5.304;2023-08-08T08:45:23;17.30;99.90
19252;DHT22;9760;50.944;5.304;2023-08-08T08:47:49;17.50;99.90
19252;DHT22;9760;50.944;5.304;2023-08-08T08:50:18;17.50;99.90
19252;DHT22;9760;50.944;5.304;2023-08-08T08:52:44;17.40;99.90
19252;DHT22;9760;50.944;5.304;2023-08-08T08:55:10;17.40;99.90
19252;DHT22;9760;50.944;5.304;2023-08-08T08:57:36;17.40;99.90
19252;DHT22;9760;50.944;5.304;2023-08-08T09:00:03;17.30;99.90
19252;DHT22;9760;50.944;5.304;2023-08-08T09:02:31;17.30;99.90
19252;DHT22;9760;50.944;5.304;2023-08-08T09:04:58;17.40;99.90
19252;DHT22;9760;50.944;5.304;2023-08-08T09:07:26;17.50;99.90
19252;DHT22;9760;50.944;5.304;2023-08-08T09:09:52;17.40;99.90
19252;DHT22;9760;50.944;5.304;2023-08-08T09:12:18;17.50;99.90
19252;DHT22;9760;50.944;5.304;2023-08-08T09:14:44;17.70;99.90
19252;DHT22;9760;50.944;5.304;2023-08-08T09:17:13;17.70;99.90
19252;DHT22;9760;50.944;5.304;2023-08-08T09:19:43;17.90;99.90
19252;DHT22;9760;50.944;5.304;2023-08-08T09:22:09;18.00;99.90
19252;DHT22;9760;50.944;5.304;2023-08-08T09:24:39;18.10;99.90
19252;DHT22;9760;50.944;5.304;2023-08-08T09:27:09;18.20;99.90
19252;DHT22;9760;50.944;5.304;2023-08-08T09:29:38;18.10;99.90
19252;DHT22;9760;50.944;5.304;2023-08-08T09:32:08;18.10;99.90
19252;DHT22;9760;50.944;5.304;2023-08-08T09:34:34;18.20;99.90
19252;DHT22;9760;50.944;5.304;2023-08-08T09:37:00;18.30;99.90
19252;DHT22;9760;50.944;5.304;2023-08-08T09:39:27;18.30;99.90
19252;DHT22;9760;50.944;5.304;2023-08-08T09:41:55;18.60;99.90
19252;DHT22;9760;50.944;5.304;2023-08-08T09:44:28;18.80;99.90
19252;DHT22;9760;50.944;5.304;2023-08-08T09:46:55;18.80;99.90
19252;DHT22;9760;50.944;5.304;2023-08-08T09:49:21;18.70;99.90
19252;DHT22;9760;50.944;5.304;2023-08-08T09:51:49;18.70;99.90
19252;DHT22;9760;50.944;5.304;2023-08-08T09:54:15;18.50;99.90
19252;DHT22;9760;50.944;5.304;2023-08-08T09:56:42;18.50;99.90
19252;DHT22;9760;50.944;5.304;2023-08-08T09:59:09;18.50;99.90
19252;DHT22;9760;50.944;5.304;2023-08-08T10:01:35;18.60;99.90
19252;DHT22;9760;50.944;5.304;2023-08-08T10:04:03;18.40;99.90
19252;DHT22;9760;50.944;5.304;2023-08-08T10:06:29;18.40;99.90
19252;DHT22;9760;50.944;5.304;2023-08-08T10:08:55;18.40;99.90
19252;DHT22;9760;50.944;5.304;2023-08-08T10:11:22;18.50;99.90
19252;DHT22;9760;50.944;5.304;2023-08-08T10:13:50;18.50;99.90
19252;DHT22;9760;50.944;5.304;2023-08-08T10:16:18;18.50;99.90
19252;DHT22;9760;50.944;5.304;2023-08-08T10:18:45;18.80;99.90
19252;DHT22;9760;50.944;5.304;2023-08-08T10:21:12;18.90;99.90
19252;DHT22;9760;50.944;5.304;2023-08-08T10:23:39;19.10;99.90
19252;DHT22;9760;50.944;5.304;2023-08-08T10:26:06;19.00;99.90
19252;DHT22;9760;50.944;5.304;2023-08-08T10:28:32;18.80;99.90
19252;DHT22;9760;50.944;5.304;2023-08-08T10:31:01;18.70;99.90
19252;DHT22;9760;50.944;5.304;2023-08-08T10:33:43;18.60;99.90
19252;DHT22;9760;50.944;5.304;2023-08-08T10:36:09;18.40;99.90
19252;DHT22;9760;50.944;5.304;2023-08-08T10:38:43;18.30;99.90
19252;DHT22;9760;50.944;5.304;2023-08-08T10:41:11;18.10;99.90
19252;DHT22;9760;50.944;5.304;2023-08-08T10:43:37;18.20;99.90
19252;DHT22;9760;50.944;5.304;2023-08-08T10:46:04;18.10;99.90
19252;DHT22;9760;50.944;5.304;2023-08-08T10:48:30;18.20;99.90
19252;DHT22;9760;50.944;5.304;2023-08-08T10:50:59;18.10;99.90
19252;DHT22;9760;50.944;5.304;2023-08-08T10:53:26;18.10;99.90
19252;DHT22;9760;50.944;5.304;2023-08-08T10:56:03;18.00;99.90
19252;DHT22;9760;50.944;5.304;2023-08-08T10:58:40;17.90;99.90
19252;DHT22;9760;50.944;5.304;2023-08-08T11:01:06;18.00;99.90
19252;DHT22;9760;50.944;5.304;2023-08-08T11:03:35;18.20;99.90
19252;DHT22;9760;50.944;5.304;2023-08-08T11:06:02;18.40;99.90
19252;DHT22;9760;50.944;5.304;2023-08-08T11:08:31;18.70;99.90
19252;DHT22;9760;50.944;5.304;2023-08-08T11:10:57;18.80;99.90
19252;DHT22;9760;50.944;5.304;2023-08-08T11:13:23;19.00;99.90
19252;DHT22;9760;50.944;5.304;2023-08-08T11:15:48;19.00;99.90
19252;DHT22;9760;50.944;5.304;2023-08-08T11:18:14;18.80;99.90
19252;DHT22;9760;50.944;5.304;2023-08-08T11:20:41;18.70;99.90
19252;DHT22;9760;50.944;5.304;2023-08-08T11:23:09;18.60;99.90
19252;DHT22;9760;50.944;5.304;2023-08-08T11:25:36;18.70;99.90
19252;DHT22;9760;50.944;5.304;2023-08-08T11:28:02;18.70;99.90
19252;DHT22;9760;50.944;5.304;2023-08-08T11:30:41;18.60;99.90
19252;DHT22;9760;50.944;5.304;2023-08-08T11:33:07;18.40;99.90
19252;DHT22;9760;50.944;5.304;2023-08-08T11:35:33;18.20;99.90
19252;DHT22;9760;50.944;5.304;2023-08-08T11:38:00;18.10;99.90
19252;DHT22;9760;50.944;5.304;2023-08-08T11:40:29;18.00;99.90
19252;DHT22;9760;50.944;5.304;2023-08-08T11:42:56;17.90;99.90
19252;DHT22;9760;50.944;5.304;2023-08-08T11:45:23;17.90;99.90
19252;DHT22;9760;50.944;5.304;2023-08-08T11:47:50;17.90;99.90
19252;DHT22;9760;50.944;5.304;2023-08-08T11:50:18;17.80;99.90
19252;DHT22;9760;50.944;5.304;2023-08-08T11:52:45;17.70;99.90
19252;DHT22;9760;50.944;5.304;2023-08-08T11:55:12;17.60;99.90
19252;DHT22;9760;50.944;5.304;2023-08-08T11:57:39;17.60;99.90
19252;DHT22;9760;50.944;5.304;2023-08-08T12:00:06;17.50;99.90
19252;DHT22;9760;50.944;5.304;2023-08-08T12:02:34;17.60;99.90
19252;DHT22;9760;50.944;5.304;2023-08-08T12:05:07;17.70;99.90
19252;DHT22;9760;50.944;5.304;2023-08-08T12:07:35;18.20;99.90
19252;DHT22;9760;50.944;5.304;2023-08-08T12:10:03;18.90;99.90
19252;DHT22;9760;50.944;5.304;2023-08-08T12:12:32;19.10;99.90
19252;DHT22;9760;50.944;5.304;2023-08-08T12:15:05;19.30;99.90
19252;DHT22;9760;50.944;5.304;2023-08-08T12:17:31;19.40;99.90
19252;DHT22;9760;50.944;5.304;2023-08-08T12:19:59;19.30;99.90
19252;DHT22;9760;50.944;5.304;2023-08-08T12:22:25;19.20;99.90
19252;DHT22;9760;50.944;5.304;2023-08-08T12:24:51;19.20;99.90
19252;DHT22;9760;50.944;5.304;2023-08-08T12:27:17;19.30;99.90
19252;DHT22;9760;50.944;5.304;2023-08-08T12:29:43;19.40;99.90
19252;DHT22;9760;50.944;5.304;2023-08-08T12:32:09;19.50;99.90
19252;DHT22;9760;50.944;5.304;2023-08-08T12:34:35;19.80;99.90
19252;DHT22;9760;50.944;5.304;2023-08-08T12:37:01;19.80;99.90
19252;DHT22;9760;50.944;5.304;2023-08-08T12:39:28;19.60;99.90
19252;DHT22;9760;50.944;5.304;2023-08-08T12:41:54;19.70;99.90
19252;DHT22;9760;50.944;5.304;2023-08-08T12:44:20;19.90;99.90
19252;DHT22;9760;50.944;5.304;2023-08-08T12:46:45;20.10;99.90
19252;DHT22;9760;50.944;5.304;2023-08-08T12:49:11;20.00;99.90
19252;DHT22;9760;50.944;5.304;2023-08-08T12:51:37;20.10;99.90
19252;DHT22;9760;50.944;5.304;2023-08-08T12:54:03;20.20;99.90
19252;DHT22;9760;50.944;5.304;2023-08-08T12:56:28;20.10;99.90
19252;DHT22;9760;50.944;5.304;2023-08-08T12:58:54;20.10;99.90
19252;DHT22;9760;50.944;5.304;2023-08-08T13:01:20;20.10;99.90
19252;DHT22;9760;50.944;5.304;2023-08-08T13:03:46;20.30;99.90
19252;DHT22;9760;50.944;5.304;2023-08-08T13:06:12;20.10;99.90
19252;DHT22;9760;50.944;5.304;2023-08-08T13:08:39;20.00;99.90
19252;DHT22;9760;50.944;5.304;2023-08-08T13:11:05;19.90;99.90
19252;DHT22;9760;50.944;5.304;2023-08-08T13:13:30;19.90;99.90
19252;DHT22;9760;50.944;5.304;2023-08-08T13:15:56;19.70;99.90
19252;DHT22;9760;50.944;5.304;2023-08-08T13:18:22;19.70;99.90
19252;DHT22;9760;50.944;5.304;2023-08-08T13:20:48;19.70;99.90
19252;DHT22;9760;50.944;5.304;2023-08-08T13:23:14;19.60;99.90
19252;DHT22;9760;50.944;5.304;2023-08-08T13:25:39;19.80;99.90
19252;DHT22;9760;50.944;5.304;2023-08-08T13:28:06;19.80;99.90
19252;DHT22;9760;50.944;5.304;2023-08-08T13:30:32;20.00;99.90
19252;DHT22;9760;50.944;5.304;2023-08-08T13:32:59;20.10;99.90
19252;DHT22;9760;50.944;5.304;2023-08-08T13:35:25;20.30;99.90
19252;DHT22;9760;50.944;5.304;2023-08-08T13:37:51;20.20;99.90
19252;DHT22;9760;50.944;5.304;2023-08-08T13:40:18;20.30;99.90
19252;DHT22;9760;50.944;5.304;2023-08-08T13:42:44;20.40;99.90
19252;DHT22;9760;50.944;5.304;2023-08-08T13:45:13;20.40;99.90
19252;DHT22;9760;50.944;5.304;2023-08-08T13:47:39;20.20;99.90
19252;DHT22;9760;50.944;5.304;2023-08-08T13:50:05;20.30;99.90
19252;DHT22;9760;50.944;5.304;2023-08-08T13:52:31;20.40;99.90
19252;DHT22;9760;50.944;5.304;2023-08-08T13:54:58;20.30;99.90
19252;DHT22;9760;50.944;5.304;2023-08-08T13:57:24;20.10;99.90
19252;DHT22;9760;50.944;5.304;2023-08-08T13:59:49;19.80;99.90
19252;DHT22;9760;50.944;5.304;2023-08-08T14:02:15;19.90;99.90
19252;DHT22;9760;50.944;5.304;2023-08-08T14:04:46;19.90;99.90
19252;DHT22;9760;50.944;5.304;2023-08-08T14:07:12;19.80;99.90
19252;DHT22;9760;50.944;5.304;2023-08-08T14:09:37;19.80;99.90
19252;DHT22;9760;50.944;5.304;2023-08-08T14:12:04;19.90;99.90
19252;DHT22;9760;50.944;5.304;2023-08-08T14:14:29;19.90;99.90
19252;DHT22;9760;50.944;5.304;2023-08-08T14:16:57;19.80;99.90
19252;DHT22;9760;50.944;5.304;2023-08-08T14:19:22;19.80;99.90
19252;DHT22;9760;50.944;5.304;2023-08-08T14:21:48;19.70;99.90
19252;DHT22;9760;50.944;5.304;2023-08-08T14:24:14;19.70;99.90
19252;DHT22;9760;50.944;5.304;2023-08-08T14:26:40;19.70;99.90
19252;DHT22;9760;50.944;5.304;2023-08-08T14:29:05;19.80;99.90
19252;DHT22;9760;50.944;5.304;2023-08-08T14:31:31;20.00;99.90
19252;DHT22;9760;50.944;5.304;2023-08-08T14:33:57;20.20;99.90
19252;DHT22;9760;50.944;5.304;2023-08-08T14:36:22;20.30;99.90
19252;DHT22;9760;50.944;5.304;2023-08-08T14:38:48;20.40;99.90
19252;DHT22;9760;50.944;5.304;2023-08-08T14:41:14;20.30;99.90
19252;DHT22;9760;50.944;5.304;2023-08-08T14:43:40;20.40;99.90
19252;DHT22;9760;50.944;5.304;2023-08-08T14:46:05;20.40;99.90
19252;DHT22;9760;50.944;5.304;2023-08-08T14:48:31;20.40;99.90
19252;DHT22;9760;50.944;5.304;2023-08-08T14:50:59;20.50;99.90
19252;DHT22;9760;50.944;5.304;2023-08-08T14:53:25;20.70;99.90
19252;DHT22;9760;50.944;5.304;2023-08-08T14:55:50;21.00;99.90
19252;DHT22;9760;50.944;5.304;2023-08-08T14:58:16;21.00;99.90
19252;DHT22;9760;50.944;5.304;2023-08-08T15:00:42;21.00;99.90
19252;DHT22;9760;50.944;5.304;2023-08-08T15:03:08;21.20;99.90
19252;DHT22;9760;50.944;5.304;2023-08-08T15:05:33;21.60;99.90
19252;DHT22;9760;50.944;5.304;2023-08-08T15:07:59;21.30;99.90
19252;DHT22;9760;50.944;5.304;2023-08-08T15:10:25;21.20;99.90
19252;DHT22;9760;50.944;5.304;2023-08-08T15:12:50;21.30;99.90
19252;DHT22;9760;50.944;5.304;2023-08-08T15:15:16;21.00;99.90
19252;DHT22;9760;50.944;5.304;2023-08-08T15:17:45;20.80;99.90
19252;DHT22;9760;50.944;5.304;2023-08-08T15:20:11;20.60;99.90
19252;DHT22;9760;50.944;5.304;2023-08-08T15:22:37;20.70;99.90
19252;DHT22;9760;50.944;5.304;2023-08-08T15:25:03;21.00;99.90
19252;DHT22;9760;50.944;5.304;2023-08-08T15:27:29;21.00;99.90
19252;DHT22;9760;50.944;5.304;2023-08-08T15:29:55;20.70;99.90
19252;DHT22;9760;50.944;5.304;2023-08-08T15:32:21;20.60;99.90
19252;DHT22;9760;50.944;5.304;2023-08-08T15:34:46;20.60;99.90
19252;DHT22;9760;50.944;5.304;2023-08-08T15:37:12;20.50;99.90
19252;DHT22;9760;50.944;5.304;2023-08-08T15:39:39;20.30;99.90